Time;durP1;ratioP1;P1;durP2;ratioP2;P2;SDS_P1;SDS_P2;PMS_P1;PMS_P2;Temp;Humidity;BMP_temperature;BMP_pressure;BME280_temperature;BME280_humidity;BME280_pressure;Samples;Min_cycle;Max_cycle;Signal;HPM_P1;HPM_P2
2022/01/23 00:02:13;;;;;;;35.13;24.15;;;7.70;99.90;;;;;;5077664;28;20032;-65
2022/01/23 00:04:40;;;;;;;35.95;24.58;;;7.70;99.90;;;;;;5077525;28;20044;-65
2022/01/23 00:07:09;;;;;;;34.97;24.55;;;7.50;99.90;;;;;;5077498;28;20025;-65
2022/01/23 00:09:36;;;;;;;36.70;25.35;;;7.60;99.90;;;;;;5077469;28;20024;-65
2022/01/23 00:12:07;;;;;;;36.00;25.23;;;7.70;99.90;;;;;;5077354;28;20036;-65
2022/01/23 00:19:49;;;;;;;33.83;23.95;;;7.30;99.90;;;;;;5077705;28;20104;-65
2022/01/23 00:22:15;;;;;;;39.92;25.35;;;7.20;99.90;;;;;;5077340;28;20379;-65
2022/01/23 00:30:28;;;;;;;33.58;24.20;;;7.40;99.90;;;;;;5077204;28;20033;-65
2022/01/23 00:32:57;;;;;;;38.15;26.15;;;7.40;99.90;;;;;;5077168;28;20048;-65
2022/01/23 00:35:24;;;;;;;36.83;24.77;;;7.50;99.90;;;;;;5077381;28;20408;-65
2022/01/23 00:37:51;;;;;;;36.60;24.95;;;7.60;99.90;;;;;;5076330;28;20048;-65
2022/01/23 00:40:17;;;;;;;35.55;24.15;;;7.70;99.90;;;;;;5077126;28;20032;-66
2022/01/23 00:42:44;;;;;;;37.38;23.92;;;7.40;99.90;;;;;;5077074;28;20090;-65
2022/01/23 00:45:32;;;;;;;36.85;24.75;;;7.40;99.90;;;;;;5077333;28;20117;-65
2022/01/23 00:48:05;;;;;;;36.50;24.55;;;7.60;99.90;;;;;;5059515;28;20029;-65
2022/01/23 00:50:38;;;;;;;34.78;23.70;;;7.50;99.90;;;;;;5077246;28;20024;-65
2022/01/23 00:53:09;;;;;;;36.58;24.15;;;7.40;99.90;;;;;;5076173;28;20039;-64
2022/01/23 00:55:36;;;;;;;34.65;23.35;;;7.50;99.90;;;;;;5076155;28;20080;-65
2022/01/23 00:58:02;;;;;;;34.42;22.63;;;7.60;99.90;;;;;;5077115;28;20036;-65
2022/01/23 01:00:28;;;;;;;30.75;22.20;;;7.30;99.90;;;;;;5077120;28;20289;-65
2022/01/23 01:02:55;;;;;;;30.63;21.55;;;7.20;99.90;;;;;;5077062;28;20033;-64
2022/01/23 01:05:21;;;;;;;34.50;21.40;;;7.30;99.90;;;;;;5059327;28;20028;-63
2022/01/23 01:07:47;;;;;;;29.42;22.33;;;7.60;99.90;;;;;;5076744;28;20400;-64
2022/01/23 01:10:21;;;;;;;31.17;22.38;;;7.60;99.90;;;;;;5075862;28;20427;-64
2022/01/23 01:12:50;;;;;;;33.95;22.17;;;7.60;99.90;;;;;;5076048;28;20142;-64
2022/01/23 01:31:27;;;;;;;32.05;21.73;;;7.50;99.90;;;;;;5076478;28;20033;-65
2022/01/23 01:34:08;;;;;;;29.42;21.15;;;7.10;99.90;;;;;;5078966;28;20376;-64
2022/01/23 01:39:05;;;;;;;31.50;21.85;;;7.30;99.90;;;;;;5079801;28;20348;-63
2022/01/23 01:41:33;;;;;;;35.75;22.02;;;7.30;99.90;;;;;;5080301;28;20037;-64
2022/01/23 01:44:00;;;;;;;35.63;22.50;;;7.50;99.90;;;;;;5080144;28;20032;-64
2022/01/23 01:46:54;;;;;;;33.10;22.63;;;7.50;99.90;;;;;;5062810;28;20044;-64
2022/01/23 01:49:30;;;;;;;36.35;24.05;;;7.40;99.90;;;;;;5063059;28;20183;-66
2022/01/23 01:52:00;;;;;;;36.30;24.02;;;7.10;99.90;;;;;;5079423;28;20048;-66
2022/01/23 01:54:29;;;;;;;41.60;25.50;;;6.90;99.90;;;;;;5079401;28;20349;-65
2022/01/23 01:57:07;;;;;;;36.40;25.15;;;6.90;99.90;;;;;;5079347;28;20035;-65
2022/01/23 02:10:41;;;;;;;35.92;22.95;;;7.00;99.90;;;;;;5065210;28;20044;-64
2022/01/23 02:13:14;;;;;;;35.38;22.48;;;7.10;99.90;;;;;;5079103;28;20078;-64
2022/01/23 02:16:16;;;;;;;35.38;22.70;;;7.10;99.90;;;;;;5078832;28;20025;-64
2022/01/23 02:55:28;;;;;;;36.88;23.85;;;6.90;99.90;;;;;;5077599;28;20363;-63
2022/01/23 03:00:14;;;;;;;38.45;24.50;;;6.70;99.90;;;;;;5063410;28;20032;-64
2022/01/23 03:03:13;;;;;;;40.33;25.10;;;6.70;99.90;;;;;;5078494;28;20040;-64
2022/01/23 03:06:23;;;;;;;39.58;26.02;;;6.90;99.90;;;;;;5078091;28;20392;-65
2022/01/23 03:14:11;;;;;;;40.83;25.83;;;7.30;99.90;;;;;;5078321;28;20024;-63
2022/01/23 03:30:24;;;;;;;43.03;26.58;;;7.50;99.90;;;;;;5078283;28;20051;-64
2022/01/23 03:32:51;;;;;;;40.00;27.23;;;7.50;99.90;;;;;;5077476;28;20360;-64
2022/01/23 03:35:19;;;;;;;40.90;26.92;;;7.40;99.90;;;;;;5060743;28;20106;-64
2022/01/23 03:37:46;;;;;;;36.72;25.88;;;7.50;99.90;;;;;;5078155;28;20098;-65
2022/01/23 03:40:12;;;;;;;41.20;27.52;;;7.40;99.90;;;;;;5077395;28;20036;-64
2022/01/23 03:42:41;;;;;;;40.33;27.17;;;7.40;99.90;;;;;;5078061;28;20033;-64
2022/01/23 03:50:45;;;;;;;40.47;27.95;;;7.60;99.90;;;;;;5063444;28;20132;-65
2022/01/23 03:53:13;;;;;;;41.17;27.40;;;7.50;99.90;;;;;;5077184;28;20399;-64
2022/01/23 03:55:39;;;;;;;40.53;27.30;;;7.40;99.90;;;;;;5076758;28;20210;-64
2022/01/23 03:58:05;;;;;;;44.30;28.33;;;7.30;99.90;;;;;;5077795;28;20033;-65
2022/01/23 04:00:32;;;;;;;42.00;28.63;;;7.30;99.90;;;;;;5077748;28;20062;-64
2022/01/23 04:03:00;;;;;;;43.97;28.67;;;7.40;99.90;;;;;;5076899;28;20308;-63
2022/01/23 04:05:27;;;;;;;45.58;29.25;;;7.50;99.90;;;;;;5060530;28;20067;-63
2022/01/23 04:07:53;;;;;;;42.88;27.48;;;7.30;99.90;;;;;;5077573;28;20059;-63
2022/01/23 04:10:21;;;;;;;36.85;26.45;;;7.10;99.90;;;;;;5077534;28;20032;-64
2022/01/23 04:15:43;;;;;;;42.50;26.90;;;7.00;99.90;;;;;;5076776;28;20059;-64
2022/01/23 05:04:31;;;;;;;38.53;25.73;;;7.30;99.90;;;;;;5077137;28;20106;-63
2022/01/23 05:07:15;;;;;;;37.85;25.58;;;7.40;99.90;;;;;;5060836;28;20067;-65
2022/01/23 05:10:19;;;;;;;37.80;25.98;;;7.40;99.90;;;;;;5078181;28;20382;-64
2022/01/23 05:13:14;;;;;;;39.83;25.15;;;7.50;99.90;;;;;;5075336;28;20068;-64
2022/01/23 05:15:40;;;;;;;36.90;24.55;;;7.30;99.90;;;;;;5076783;28;20121;-66
2022/01/23 05:18:06;;;;;;;38.10;24.88;;;7.00;99.90;;;;;;5076763;28;20139;-65
2022/01/23 05:20:33;;;;;;;42.75;26.10;;;6.90;99.90;;;;;;5076660;28;20028;-64
2022/01/23 05:23:03;;;;;;;42.88;26.13;;;7.10;99.90;;;;;;5076013;28;20028;-64
2022/01/23 05:25:32;;;;;;;47.80;27.10;;;7.20;99.90;;;;;;5076693;28;20368;-65
2022/01/23 05:27:57;;;;;;;41.65;26.48;;;7.40;99.90;;;;;;5076639;28;20087;-65
2022/01/23 05:30:24;;;;;;;37.28;25.52;;;7.50;99.90;;;;;;5075799;28;20032;-64
2022/01/23 05:32:51;;;;;;;43.00;26.05;;;7.30;99.90;;;;;;5075689;28;20033;-64
2022/01/23 05:35:19;;;;;;;40.78;25.92;;;7.20;99.90;;;;;;5075526;28;20060;-65
2022/01/23 05:37:46;;;;;;;39.35;25.35;;;7.20;99.90;;;;;;5042899;28;20033;-66
2022/01/23 05:40:17;;;;;;;43.58;26.20;;;7.30;99.90;;;;;;5075744;28;20116;-64
2022/01/23 05:42:46;;;;;;;39.85;24.95;;;7.40;99.90;;;;;;5075679;28;20331;-65
2022/01/23 05:45:12;;;;;;;46.03;26.13;;;7.30;99.90;;;;;;5075641;28;20021;-65
2022/01/23 05:47:56;;;;;;;42.33;26.88;;;7.00;99.90;;;;;;5075895;28;20102;-64
2022/01/23 05:50:57;;;;;;;42.15;25.77;;;6.80;99.90;;;;;;5083322;28;20032;-64
2022/01/23 05:53:35;;;;;;;41.67;26.20;;;6.80;99.90;;;;;;5075660;28;20048;-64
2022/01/23 05:56:21;;;;;;;40.47;26.13;;;6.70;99.90;;;;;;5076374;28;20330;-64
2022/01/23 05:58:53;;;;;;;43.72;26.77;;;6.70;99.90;;;;;;5076599;28;20052;-65
2022/01/23 06:01:22;;;;;;;39.45;26.25;;;7.00;99.90;;;;;;5075464;28;20422;-65
2022/01/23 06:03:50;;;;;;;47.60;27.42;;;7.10;99.90;;;;;;5059326;28;20024;-64
2022/01/23 06:06:20;;;;;;;41.78;26.63;;;7.20;99.90;;;;;;5075539;28;20303;-64
2022/01/23 06:08:46;;;;;;;44.60;27.83;;;7.30;99.90;;;;;;5075507;28;20033;-65
2022/01/23 06:11:12;;;;;;;46.83;28.13;;;7.30;99.90;;;;;;5042336;28;20039;-65
2022/01/23 06:13:40;;;;;;;44.35;27.02;;;7.40;99.90;;;;;;5075440;28;20036;-64
2022/01/23 06:16:08;;;;;;;44.85;27.73;;;7.30;99.90;;;;;;5075420;28;20117;-65
2022/01/23 06:18:38;;;;;;;41.92;27.38;;;6.90;99.90;;;;;;5059887;28;20036;-65
2022/01/23 06:21:24;;;;;;;43.25;26.55;;;6.70;99.90;;;;;;5079809;28;20146;-65
2022/01/23 06:24:22;;;;;;;41.47;25.55;;;6.50;99.90;;;;;;5080029;28;20124;-65
2022/01/23 06:27:02;;;;;;;42.92;26.40;;;6.40;99.90;;;;;;5079110;28;20509;-65
2022/01/23 06:29:30;;;;;;;42.75;26.65;;;6.60;99.90;;;;;;5078830;28;20407;-65
2022/01/23 06:31:58;;;;;;;43.38;28.27;;;6.80;99.90;;;;;;5079468;28;20029;-65
2022/01/23 06:34:27;;;;;;;44.72;27.58;;;7.00;99.90;;;;;;5079585;28;20380;-65
2022/01/23 06:36:54;;;;;;;47.55;28.85;;;7.00;99.90;;;;;;5079476;28;20121;-64
2022/01/23 06:39:22;;;;;;;41.72;27.90;;;6.90;99.90;;;;;;5078512;28;20040;-64
2022/01/23 06:41:52;;;;;;;49.30;29.50;;;7.10;99.90;;;;;;5078643;28;20028;-65
2022/01/23 06:44:29;;;;;;;50.15;30.23;;;7.10;99.90;;;;;;5079296;28;20400;-64
2022/01/23 06:46:56;;;;;;;45.75;28.80;;;6.90;99.90;;;;;;5078457;28;20055;-65
2022/01/23 06:49:23;;;;;;;42.38;28.10;;;6.60;99.90;;;;;;5061869;28;20040;-65
2022/01/23 06:51:51;;;;;;;44.63;26.23;;;6.50;99.90;;;;;;5079022;28;20339;-66
2022/01/23 06:54:18;;;;;;;42.65;26.83;;;6.40;99.90;;;;;;5078335;28;20036;-66
2022/01/23 06:56:45;;;;;;;42.90;25.10;;;6.30;99.90;;;;;;5078070;28;20055;-66
2022/01/23 06:59:11;;;;;;;40.63;26.20;;;6.20;99.90;;;;;;5078151;28;20036;-66
2022/01/23 07:01:41;;;;;;;43.00;24.85;;;6.20;99.90;;;;;;5078193;28;20021;-65
2022/01/23 07:04:36;;;;;;;44.33;26.10;;;6.10;99.90;;;;;;5077795;28;20048;-65
2022/01/23 07:07:06;;;;;;;42.47;25.27;;;6.00;99.90;;;;;;5079310;28;20067;-65
2022/01/23 07:09:46;;;;;;;47.25;26.80;;;6.20;99.90;;;;;;5078712;28;20127;-66
2022/01/23 07:12:31;;;;;;;44.95;27.10;;;6.50;99.90;;;;;;5078026;28;20036;-65
2022/01/23 07:15:04;;;;;;;47.10;28.17;;;6.80;99.90;;;;;;5079212;28;20037;-65
2022/01/23 07:17:44;;;;;;;44.25;25.45;;;7.00;99.90;;;;;;5078269;28;20035;-63
2022/01/23 07:20:43;;;;;;;44.60;27.02;;;7.10;99.90;;;;;;5078169;28;20045;-64
2022/01/23 07:23:20;;;;;;;45.77;27.60;;;7.10;99.90;;;;;;5061910;28;20043;-64
2022/01/23 07:25:46;;;;;;;;;;;7.20;99.90;;;;;;5079380;28;20279;-64
2022/01/23 07:28:16;;;;;;;43.35;26.10;;;7.30;99.90;;;;;;5077610;28;20283;-65
2022/01/23 07:30:55;;;;;;;41.88;26.13;;;7.30;99.90;;;;;;5076965;28;20040;-65
2022/01/23 07:33:21;;;;;;;41.50;26.30;;;7.30;99.90;;;;;;5077575;28;20042;-65
2022/01/23 07:35:47;;;;;;;42.95;26.33;;;7.10;99.90;;;;;;5060746;28;20048;-65
2022/01/23 07:38:17;;;;;;;43.00;25.85;;;7.00;99.90;;;;;;5077452;28;20368;-65
2022/01/23 07:41:02;;;;;;;44.88;26.73;;;7.00;99.90;;;;;;5077547;28;20059;-65
2022/01/23 07:43:51;;;;;;;43.42;25.83;;;7.00;99.90;;;;;;5075243;28;20071;-65
2022/01/23 07:46:36;;;;;;;43.13;25.35;;;6.90;99.90;;;;;;5078072;28;20090;-64
2022/01/23 07:49:32;;;;;;;41.95;26.05;;;7.10;99.90;;;;;;5081546;28;20037;-65
2022/01/23 07:52:17;;;;;;;46.00;27.33;;;7.20;99.90;;;;;;5077881;28;20418;-65
2022/01/23 07:54:47;;;;;;;43.10;26.23;;;7.10;99.90;;;;;;5077248;28;20029;-65
2022/01/23 07:57:28;;;;;;;42.30;25.77;;;6.90;99.90;;;;;;5077190;28;20036;-65
2022/01/23 08:00:00;;;;;;;45.33;25.75;;;6.80;99.90;;;;;;5078297;28;20021;-65
2022/01/23 08:02:51;;;;;;;47.88;26.85;;;6.90;99.90;;;;;;5077070;28;20076;-64
2022/01/23 08:05:40;;;;;;;41.33;25.67;;;7.10;99.90;;;;;;5078021;28;20102;-65
2022/01/23 08:08:34;;;;;;;43.03;26.23;;;7.30;99.90;;;;;;5076246;28;20485;-64
2022/01/23 08:11:07;;;;;;;46.30;27.98;;;7.20;99.90;;;;;;5078137;28;20036;-65
2022/01/23 08:13:33;;;;;;;41.10;25.83;;;7.00;99.90;;;;;;5076736;28;20101;-64
2022/01/23 08:16:00;;;;;;;43.75;27.05;;;6.70;99.90;;;;;;5077201;28;20048;-65
2022/01/23 08:18:26;;;;;;;38.97;25.50;;;6.60;99.90;;;;;;5077480;28;20033;-65
2022/01/23 08:20:51;;;;;;;41.40;27.17;;;6.70;99.90;;;;;;5076726;28;20031;-65
2022/01/23 08:23:18;;;;;;;43.92;25.90;;;6.80;99.90;;;;;;5077384;28;20032;-65
2022/01/23 08:25:44;;;;;;;42.00;25.25;;;7.00;99.90;;;;;;5059854;28;20024;-65
2022/01/23 08:28:10;;;;;;;42.40;26.13;;;7.20;99.90;;;;;;5077278;28;20044;-65
2022/01/23 08:30:36;;;;;;;45.88;27.85;;;7.30;99.90;;;;;;5077143;28;20067;-65
2022/01/23 08:33:03;;;;;;;43.15;26.00;;;7.50;99.90;;;;;;5076461;28;20040;-65
2022/01/23 08:35:29;;;;;;;44.65;26.10;;;7.60;99.90;;;;;;5077105;28;20353;-66
2022/01/23 08:37:55;;;;;;;43.53;26.63;;;7.50;99.90;;;;;;5077117;28;20052;-65
2022/01/23 08:40:45;;;;;;;45.22;27.48;;;7.40;99.90;;;;;;5076444;28;20062;-65
2022/01/23 08:43:11;;;;;;;43.63;27.00;;;7.30;99.90;;;;;;5075382;28;20390;-65
2022/01/23 08:45:37;;;;;;;42.22;26.38;;;7.40;99.90;;;;;;5076890;28;20029;-65
2022/01/23 08:48:04;;;;;;;44.55;27.17;;;7.50;99.90;;;;;;5077002;28;20036;-65
2022/01/23 08:50:30;;;;;;;42.90;27.13;;;7.50;99.90;;;;;;5076170;28;20473;-66
2022/01/23 08:52:55;;;;;;;42.75;27.00;;;7.70;99.90;;;;;;5077196;28;20032;-66
2022/01/23 08:55:21;;;;;;;48.90;28.13;;;7.70;99.90;;;;;;5076803;28;20032;-65
2022/01/23 08:57:48;;;;;;;46.47;26.42;;;7.80;99.90;;;;;;5076923;28;20033;-65
2022/01/23 09:00:14;;;;;;;46.90;27.17;;;7.90;99.90;;;;;;5076268;28;20347;-65
2022/01/23 09:02:41;;;;;;;44.55;26.98;;;7.90;99.90;;;;;;5076843;28;20031;-66
2022/01/23 09:05:07;;;;;;;40.85;26.75;;;7.90;99.90;;;;;;5076815;28;20032;-65
2022/01/23 09:07:33;;;;;;;45.08;27.77;;;7.90;99.90;;;;;;5076956;28;20042;-63
2022/01/23 09:10:02;;;;;;;47.25;27.88;;;7.90;99.90;;;;;;5076861;28;20037;-66
2022/01/23 09:15:04;;;;;;;44.00;28.38;;;8.00;99.90;;;;;;5077392;28;20050;-65
2022/01/23 09:17:30;;;;;;;41.30;26.10;;;8.10;99.90;;;;;;5077156;28;20441;-63
2022/01/23 09:19:56;;;;;;;40.97;26.20;;;8.00;99.90;;;;;;5076011;28;20028;-64
2022/01/23 09:22:22;;;;;;;40.42;25.60;;;7.80;99.90;;;;;;5076025;28;20033;-64
2022/01/23 09:24:48;;;;;;;39.65;24.65;;;7.40;99.90;;;;;;5075914;28;20274;-65
2022/01/23 09:27:18;;;;;;;41.03;25.20;;;7.00;99.90;;;;;;5076586;28;20356;-64
2022/01/23 09:29:48;;;;;;;38.78;24.85;;;6.90;99.90;;;;;;5075976;28;20378;-65
2022/01/23 09:32:15;;;;;;;42.28;24.73;;;6.90;99.90;;;;;;5059787;28;20411;-65
2022/01/23 09:34:43;;;;;;;45.83;26.95;;;7.10;99.90;;;;;;5076399;28;20041;-65
2022/01/23 09:37:13;;;;;;;44.78;27.05;;;7.40;99.90;;;;;;5076517;28;20330;-66
2022/01/23 09:39:41;;;;;;;40.30;24.75;;;7.60;99.90;;;;;;5076550;28;20017;-64
2022/01/23 09:42:14;;;;;;;40.95;25.40;;;7.70;99.90;;;;;;5076437;28;20040;-64
2022/01/23 09:44:53;;;;;;;42.08;26.05;;;7.80;99.90;;;;;;5076448;28;20175;-64
2022/01/23 09:47:20;;;;;;;43.22;25.23;;;7.90;99.90;;;;;;5076473;28;20086;-65
2022/01/23 09:49:48;;;;;;;41.33;25.88;;;7.90;99.90;;;;;;5076378;28;20036;-64
2022/01/23 09:52:15;;;;;;;42.72;26.08;;;8.00;99.90;;;;;;5075555;28;20037;-64
2022/01/23 09:54:44;;;;;;;42.58;25.80;;;7.90;99.90;;;;;;5079092;28;20044;-63
2022/01/23 09:57:12;;;;;;;38.58;24.55;;;7.70;99.90;;;;;;5080272;28;20174;-65
2022/01/23 09:59:40;;;;;;;39.42;25.00;;;7.60;99.90;;;;;;5080026;28;20024;-66
2022/01/23 10:02:08;;;;;;;41.65;26.83;;;7.60;99.90;;;;;;5079858;28;20040;-66
2022/01/23 10:04:34;;;;;;;45.70;26.40;;;7.30;99.90;;;;;;5080008;28;20028;-64
2022/01/23 10:07:03;;;;;;;42.40;26.40;;;7.10;99.90;;;;;;5079987;28;20039;-64
2022/01/23 10:09:31;;;;;;;43.80;26.63;;;7.00;99.90;;;;;;5079957;28;20032;-65
2022/01/23 10:11:58;;;;;;;49.10;27.00;;;7.10;99.90;;;;;;5079820;28;20040;-64
2022/01/23 10:14:24;;;;;;;40.75;26.15;;;7.40;99.90;;;;;;5079171;28;20040;-65
2022/01/23 10:16:51;;;;;;;44.28;25.98;;;7.60;99.90;;;;;;5079139;28;20036;-65
2022/01/23 10:19:17;;;;;;;40.72;26.55;;;7.70;99.90;;;;;;5078947;28;20048;-65
2022/01/23 10:21:45;;;;;;;42.75;27.35;;;7.80;99.90;;;;;;5079941;28;20388;-66
2022/01/23 10:24:13;;;;;;;40.92;25.65;;;8.00;99.90;;;;;;5078938;28;20319;-64
2022/01/23 10:26:46;;;;;;;41.70;26.33;;;7.90;99.90;;;;;;5079502;28;20032;-65
2022/01/23 10:29:20;;;;;;;41.28;26.20;;;8.00;99.90;;;;;;5078790;28;20418;-65
2022/01/23 10:32:06;;;;;;;40.80;25.52;;;8.10;99.90;;;;;;5079412;28;20028;-64
2022/01/23 10:34:44;;;;;;;40.22;25.58;;;7.80;99.90;;;;;;5079225;28;20044;-66
2022/01/23 10:37:12;;;;;;;40.15;25.02;;;7.80;99.90;;;;;;5079406;28;20025;-65
2022/01/23 10:39:45;;;;;;;37.33;25.05;;;8.00;99.90;;;;;;5078672;28;20035;-64
2022/01/23 10:51:11;;;;;;;39.63;24.70;;;8.20;99.90;;;;;;5079239;28;20303;-64
2022/01/23 10:53:59;;;;;;;38.20;24.88;;;8.30;99.90;;;;;;5078346;28;20033;-64
2022/01/23 10:56:26;;;;;;;36.13;24.42;;;8.40;99.90;;;;;;5079057;28;20388;-64
2022/01/23 10:59:03;;;;;;;38.55;25.35;;;8.50;99.90;;;;;;5078365;28;20303;-65
2022/01/23 11:01:29;;;;;;;38.92;24.63;;;8.40;99.90;;;;;;5079009;28;20086;-64
2022/01/23 11:04:05;;;;;;;34.13;23.83;;;8.20;99.90;;;;;;5079024;28;20067;-64
2022/01/23 11:06:31;;;;;;;35.25;23.48;;;8.10;99.90;;;;;;5078362;28;20035;-64
2022/01/23 11:09:10;;;;;;;35.75;23.25;;;8.30;99.90;;;;;;5078069;28;20296;-65
2022/01/23 11:11:44;;;;;;;35.13;23.70;;;8.30;99.90;;;;;;5078789;28;20040;-64
2022/01/23 11:17:25;;;;;;;;;;;8.70;99.90;;;;;;5079223;28;20064;-64
2022/01/23 11:19:55;;;;;;;35.33;23.83;;;8.70;99.90;;;;;;5078725;28;19908;-64
2022/01/23 11:22:24;;;;;;;35.78;23.92;;;8.60;99.90;;;;;;5079068;28;20085;-64
2022/01/23 11:24:52;;;;;;;33.97;23.15;;;8.40;99.90;;;;;;5078610;28;20421;-65
2022/01/23 11:27:22;;;;;;;37.88;22.13;;;8.20;99.90;;;;;;5078575;28;20073;-64
2022/01/23 11:30:10;;;;;;;34.35;22.00;;;8.10;99.90;;;;;;5078480;28;20037;-66
2022/01/23 11:32:39;;;;;;;32.45;21.83;;;8.20;99.90;;;;;;5077813;28;20303;-65
2022/01/23 11:35:15;;;;;;;35.05;21.73;;;8.10;99.90;;;;;;5078197;28;20049;-65
2022/01/23 11:37:47;;;;;;;37.42;21.92;;;8.10;99.90;;;;;;5077494;28;20029;-65
2022/01/23 11:40:30;;;;;;;31.40;21.23;;;8.10;99.90;;;;;;5078308;28;20389;-65
2022/01/23 11:53:45;;;;;;;33.65;21.27;;;7.50;99.90;;;;;;5078614;28;20064;-67
2022/01/23 11:54:11;;;;;;;32.53;20.45;;;7.60;99.90;;;;;;5077953;28;20044;-67
2022/01/23 11:56:41;;;;;;;30.08;21.27;;;7.60;99.90;;;;;;5077888;28;20029;-66
2022/01/23 11:59:40;;;;;;;32.88;20.38;;;7.80;99.90;;;;;;5077216;28;20078;-66
2022/01/23 12:02:20;;;;;;;32.60;21.15;;;8.10;99.90;;;;;;5077840;28;20048;-66
2022/01/23 12:05:21;;;;;;;31.98;20.08;;;8.20;99.90;;;;;;5077756;28;20032;-66
2022/01/23 12:08:15;;;;;;;28.80;19.40;;;7.90;99.90;;;;;;5077646;28;20059;-67
2022/01/23 12:10:53;;;;;;;29.33;18.63;;;7.80;99.90;;;;;;5076877;28;20320;-66
2022/01/23 12:16:20;;;;;;;32.10;19.75;;;7.80;99.90;;;;;;5077345;28;20121;-67
2022/01/23 12:18:52;;;;;;;26.52;19.30;;;7.80;99.90;;;;;;5076868;28;20043;-66
2022/01/23 12:21:29;;;;;;;31.75;20.70;;;7.80;99.90;;;;;;5076754;28;20028;-66
2022/01/23 12:24:04;;;;;;;28.38;19.48;;;7.70;99.90;;;;;;5077622;28;20032;-66
2022/01/23 12:26:30;;;;;;;38.38;25.08;;;7.80;99.90;;;;;;5077209;28;20280;-66
2022/01/23 12:29:09;;;;;;;31.13;21.40;;;7.90;99.90;;;;;;5076696;28;20129;-67
2022/01/23 12:31:36;;;;;;;31.30;20.90;;;7.90;99.90;;;;;;5077521;28;20028;-66
2022/01/23 12:34:02;;;;;;;29.35;19.52;;;7.90;99.90;;;;;;5076523;28;20036;-65
2022/01/23 12:36:34;;;;;;;30.10;21.40;;;7.90;99.90;;;;;;5077121;28;20296;-66
2022/01/23 12:39:09;;;;;;;34.63;23.85;;;8.10;99.90;;;;;;5077180;28;20029;-65
2022/01/23 12:41:47;;;;;;;29.25;20.83;;;8.10;99.90;;;;;;5076439;28;20145;-65
2022/01/23 12:44:26;;;;;;;31.40;21.25;;;8.10;99.90;;;;;;5077028;28;20025;-66
2022/01/23 12:47:05;;;;;;;27.75;18.13;;;8.00;99.90;;;;;;5077135;28;20338;-66
2022/01/23 12:49:37;;;;;;;32.03;21.42;;;7.90;99.90;;;;;;5076943;28;20123;-66
2022/01/23 12:52:06;;;;;;;27.52;19.58;;;7.90;99.90;;;;;;5076925;28;20479;-66
2022/01/23 12:54:35;;;;;;;33.15;21.40;;;8.00;99.90;;;;;;5077092;28;20323;-70
2022/01/23 12:57:08;;;;;;;32.13;22.45;;;8.20;99.90;;;;;;5077254;28;20020;-68
2022/01/23 12:59:36;;;;;;;31.67;21.63;;;8.10;99.90;;;;;;5059648;28;20293;-66
2022/01/23 13:02:08;;;;;;;32.28;22.08;;;8.30;99.90;;;;;;5076878;28;20044;-66
2022/01/23 13:04:40;;;;;;;;;;;8.60;99.90;;;;;;5076751;28;20099;-66
2022/01/23 13:07:14;;;;;;;24.67;17.85;;;8.70;99.90;;;;;;5076841;28;20280;-66
2022/01/23 13:14:45;;;;;;;25.13;18.15;;;8.50;99.90;;;;;;5076806;28;20056;-66
2022/01/23 13:20:00;;;;;;;21.90;15.32;;;8.20;99.90;;;;;;5076913;28;20032;-66
2022/01/23 13:30:50;;;;;;;24.88;15.40;;;8.10;99.90;;;;;;5080044;28;20045;-66
2022/01/23 13:33:21;;;;;;;23.98;15.68;;;8.10;99.90;;;;;;5079902;28;20048;-67
2022/01/23 13:35:52;;;;;;;22.02;16.73;;;7.90;99.90;;;;;;5079875;28;20071;-67
2022/01/23 13:38:21;;;;;;;28.70;18.80;;;7.80;99.90;;;;;;5079829;28;20047;-67
2022/01/23 13:40:57;;;;;;;24.27;17.02;;;7.80;99.90;;;;;;5080469;28;20024;-67
2022/01/23 13:59:46;;;;;;;24.98;17.77;;;8.40;99.90;;;;;;5079351;28;20044;-67
2022/01/23 14:02:34;;;;;;;26.02;18.63;;;8.70;99.90;;;;;;5080593;28;20024;-66
2022/01/23 14:05:06;;;;;;;27.13;18.27;;;8.90;99.90;;;;;;5080053;28;20079;-67
2022/01/23 14:07:32;;;;;;;23.10;16.55;;;9.00;99.90;;;;;;5080417;28;20032;-67
2022/01/23 14:10:11;;;;;;;21.90;16.60;;;9.10;99.90;;;;;;5079343;28;20028;-67
2022/01/23 14:12:37;;;;;;;23.63;16.65;;;9.10;99.90;;;;;;5079749;28;20036;-65
2022/01/23 14:15:16;;;;;;;22.80;16.75;;;9.10;99.90;;;;;;5079964;28;20066;-66
2022/01/23 14:17:54;;;;;;;26.05;17.50;;;9.00;99.90;;;;;;5079887;28;20384;-65
2022/01/23 14:20:20;;;;;;;22.15;16.40;;;9.00;99.90;;;;;;5079774;28;20048;-65
2022/01/23 14:22:48;;;;;;;28.98;17.83;;;8.80;99.90;;;;;;5080294;28;20113;-67
2022/01/23 14:25:20;;;;;;;26.08;18.88;;;8.60;99.90;;;;;;5078957;28;20028;-66
2022/01/23 14:28:10;;;;;;;24.45;17.52;;;8.40;99.90;;;;;;5080160;28;20036;-67
2022/01/23 14:30:49;;;;;;;23.05;17.30;;;8.40;99.90;;;;;;5079574;28;20169;-67
2022/01/23 14:33:22;;;;;;;22.27;15.45;;;8.60;99.90;;;;;;5079731;28;20028;-63
2022/01/23 14:35:49;;;;;;;25.83;17.63;;;8.60;99.90;;;;;;5079540;28;20098;-66
2022/01/23 14:38:21;;;;;;;27.23;17.50;;;8.80;99.90;;;;;;5079675;28;20028;-66
2022/01/23 14:41:10;;;;;;;24.98;17.90;;;8.60;99.90;;;;;;5079410;28;20024;-66
2022/01/23 14:43:41;;;;;;;20.13;14.52;;;8.50;99.90;;;;;;5075259;28;20040;-65
2022/01/23 14:46:10;;;;;;;22.10;15.68;;;8.50;99.90;;;;;;5078542;28;20032;-65
2022/01/23 14:48:45;;;;;;;20.63;14.82;;;8.30;99.90;;;;;;5079158;28;20172;-65
2022/01/23 14:51:18;;;;;;;23.42;16.38;;;8.30;99.90;;;;;;5079202;28;20040;-66
2022/01/23 14:53:44;;;;;;;26.25;17.25;;;8.30;99.90;;;;;;5078295;28;20044;-65
2022/01/23 14:56:13;;;;;;;23.75;16.23;;;8.30;99.90;;;;;;5079172;28;20025;-66
2022/01/23 14:58:40;;;;;;;23.90;16.88;;;8.20;99.90;;;;;;5079078;28;20031;-66
2022/01/23 15:01:10;;;;;;;25.30;18.20;;;8.30;99.90;;;;;;5079044;28;20029;-66
2022/01/23 15:03:37;;;;;;;25.70;18.15;;;8.50;99.90;;;;;;5078097;28;20097;-66
2022/01/23 15:06:03;;;;;;;27.02;17.45;;;8.60;99.90;;;;;;5078933;28;20033;-65
2022/01/23 15:08:30;;;;;;;25.58;16.92;;;8.70;99.90;;;;;;5078903;28;20094;-65
2022/01/23 15:11:00;;;;;;;23.52;16.92;;;8.70;99.90;;;;;;5078816;28;20034;-66
2022/01/23 15:13:29;;;;;;;23.55;15.80;;;8.60;99.90;;;;;;5078717;28;20388;-66
2022/01/23 15:15:56;;;;;;;24.92;17.55;;;8.60;99.90;;;;;;5078588;28;20299;-66
2022/01/23 15:18:23;;;;;;;25.67;17.08;;;8.70;99.90;;;;;;5078471;28;20028;-66
2022/01/23 15:20:49;;;;;;;22.88;16.73;;;8.70;99.90;;;;;;5078394;28;20400;-66
2022/01/23 15:23:16;;;;;;;25.17;17.20;;;8.80;99.90;;;;;;5077630;28;20032;-66
2022/01/23 15:25:44;;;;;;;24.50;17.48;;;8.80;99.90;;;;;;5078420;28;20384;-66
2022/01/23 15:28:10;;;;;;;25.90;18.00;;;8.80;99.90;;;;;;5077740;28;20273;-66
2022/01/23 15:30:37;;;;;;;23.38;16.85;;;8.80;99.90;;;;;;5078421;28;20032;-66
2022/01/23 15:33:06;;;;;;;27.63;18.13;;;8.80;99.90;;;;;;5077654;28;20032;-66
2022/01/23 15:35:33;;;;;;;23.60;16.33;;;8.80;99.90;;;;;;5077260;28;20048;-66
2022/01/23 15:37:59;;;;;;;31.42;17.30;;;8.80;99.90;;;;;;5078186;28;20032;-67
2022/01/23 15:40:25;;;;;;;29.33;17.17;;;8.80;99.90;;;;;;5077455;28;20029;-66
2022/01/23 15:42:53;;;;;;;28.40;18.80;;;8.80;99.90;;;;;;5078484;28;20040;-66
2022/01/23 15:45:21;;;;;;;37.85;19.42;;;8.80;99.90;;;;;;5078034;28;20060;-66
2022/01/23 15:47:47;;;;;;;26.30;18.15;;;8.80;99.90;;;;;;5078116;28;20107;-67
2022/01/23 15:50:16;;;;;;;22.23;15.45;;;8.70;99.90;;;;;;5077949;28;20104;-69
2022/01/23 15:52:42;;;;;;;23.63;15.20;;;8.70;99.90;;;;;;5077400;28;20295;-67
2022/01/23 15:55:11;;;;;;;23.83;16.65;;;8.70;99.90;;;;;;5077409;28;20111;-67
2022/01/23 15:57:38;;;;;;;18.10;12.02;;;8.60;99.90;;;;;;5077761;28;20464;-67
2022/01/23 16:00:06;;;;;;;19.88;11.93;;;8.50;99.90;;;;;;5077607;28;20016;-66
2022/01/23 16:02:38;;;;;;;20.83;13.77;;;8.50;99.90;;;;;;5077867;28;20059;-67
2022/01/23 16:05:05;;;;;;;18.48;13.60;;;8.50;99.90;;;;;;5077810;28;20025;-66
2022/01/23 16:07:31;;;;;;;18.15;13.88;;;8.50;99.90;;;;;;5077449;28;20050;-67
2022/01/23 16:09:56;;;;;;;17.52;12.45;;;8.40;99.90;;;;;;5076877;28;20743;-67
2022/01/23 16:12:23;;;;;;;21.42;12.93;;;8.30;99.90;;;;;;5076656;28;20028;-67
2022/01/23 16:14:48;;;;;;;12.40;9.55;;;8.30;99.90;;;;;;5078172;28;20408;-66
2022/01/23 16:17:14;;;;;;;12.27;8.65;;;8.20;99.90;;;;;;5077416;28;20025;-68
2022/01/23 16:19:40;;;;;;;11.60;9.25;;;8.00;99.90;;;;;;5078032;28;20449;-67
2022/01/23 16:22:06;;;;;;;15.35;9.85;;;8.00;99.90;;;;;;5076644;28;20032;-67
2022/01/23 16:24:32;;;;;;;14.95;10.52;;;8.00;99.90;;;;;;5077360;28;20352;-67
2022/01/23 16:26:59;;;;;;;15.25;10.80;;;8.10;99.90;;;;;;5077419;28;20347;-67
2022/01/23 16:29:26;;;;;;;14.07;7.43;;;8.20;99.90;;;;;;5077291;28;20042;-67
2022/01/23 16:31:54;;;;;;;9.80;5.85;;;8.00;99.90;;;;;;5077201;28;20025;-67
2022/01/23 16:34:21;;;;;;;9.25;5.90;;;7.70;99.90;;;;;;5059954;28;20304;-67